Etusivu
METAR-TAF:

METAR-TAF

Lentoasemat :

Kuningas Khalidin kansainvälinen lentoasema

Riad, Saudi-Arabia

Leveyspiiri: 24-56N, Pituuspiiri: 046-43E, korkeus merenpinnasta: 614 m

Tämänhetkinen sää

Tämä raportti tehtiin 9 minuuttia sitten, kello 14.00 UTC
Tuuli 12 kn pohjoisesta
Lämpötila 23°C
Kosteus 23%
Ilmanpaine 1015 hPa
Näkyvyys 10 km tai enemmän
ei pilviä alle 1500 m:ssä eikä cumulonimbus-pilviä

METAR: OERK 201400Z 36012KT CAVOK 23/01 Q1015 TEMPO 5000 BLDU

Aika: 17:09 (14:09 UTC)

Sääennuste

Tämä raportti tehtiin 3 tuntia ja 9 minuuttia sitten, kello 11.00 UTC
Ennuste voimassa 20. päivästä klo 12 UTC - 21. päivään klo 18 UTC
Tuuli 8 kn pohjoisen/luoteesta puuskistuen 18 kn:hen
Näkyvyys: 7000 m
Muutamia pilviä 4000 ft:n korkeudessa
Tulossa
20. päivästä klo 18 UTC - 20. päivään klo 20 UTC
Tuuli 3 kn eri suunnista

TAF: OERK 201100Z 2012/2118 34008G18KT 7000 FEW040 BECMG 2018/2020 VRB03KT

Säähavainnot ja -ennusteet yli 4000 lentoasemalta (METAR- ja TAF-raportit).

Käytössä olevat sääasemat on merkitty karttaan keltaisilla ja punaisilla pisteillä.

Aseta hiiri pisteen päälle nähdäksesi sääaseman nimen.

Klikkaa sitten nähdäksesi säähavainnot ja -ennusteet.

Kartan vaihtaminen: klikkaa mustalla rastilla varustettuja vihreitä pisteitä, niin voit zoomata sisään; viivalla varustettua vihreää pistettä, niin voit zoomata ulos tai vihreitä nuolia, niin pääset viereisille kartoille.


METAR-TAF: